Porthleven, United Kingdom
Current Conditions -  °F | °C
As of 3:50 AM on Thursday 27 Nov 2014 (Local Time) from EGDR Reporting Station
Haze Haze  
Wind Chill: 40°   Ceiling: 3500
Heat Index: 45°   Visibility: 6mi
Dew Point: 39°   Wind: 8mph
Humidity: 81%   Direction: 100°E
Pressure: 29.65"   Gusts: NA
Location:  50.09°N, 5.32°W
Report Text: EGDR 270350Z 10007KT 9999 HZ FEW025 OVC035 07/04 Q1004 BLU
Loading
Personal Weather Stations






























Interactive Weather Map New forecast layout! Learn more

10-Day Weather Forecast

Advertisements
Track Severe Weather on mobile